createdAt,value
2018-07-13T00:01:37.672Z,7.23
2018-07-13T00:04:05.505Z,7.77
2018-07-13T00:06:33.264Z,7.63
2018-07-13T00:09:00.956Z,6.67
2018-07-13T00:11:28.684Z,6.70
2018-07-13T00:14:17.442Z,7.83
2018-07-13T00:16:46.008Z,7.73
2018-07-13T00:19:14.386Z,7.87
2018-07-13T00:21:42.052Z,6.93
2018-07-13T00:24:09.754Z,6.53
2018-07-13T00:26:38.000Z,7.40
2018-07-13T00:29:06.489Z,7.53
2018-07-13T00:31:34.962Z,7.10
2018-07-13T00:34:02.656Z,7.40
2018-07-13T00:36:30.450Z,7.23
2018-07-13T00:38:58.288Z,7.63
2018-07-13T00:41:25.998Z,7.10
2018-07-13T00:43:53.905Z,7.20
2018-07-13T00:46:22.073Z,7.37
2018-07-13T00:48:49.862Z,7.63
2018-07-13T00:51:17.718Z,7.30
2018-07-13T00:53:45.751Z,6.67
2018-07-13T00:56:13.614Z,7.37
2018-07-13T00:58:41.349Z,6.90
2018-07-13T01:01:09.063Z,7.00
2018-07-13T01:03:36.867Z,6.77
2018-07-13T01:06:04.517Z,6.50
2018-07-13T01:08:32.254Z,6.60
2018-07-13T01:10:59.985Z,6.60
2018-07-13T01:13:27.787Z,7.53
2018-07-13T01:15:55.774Z,6.93
2018-07-13T01:18:23.489Z,7.63
2018-07-13T01:20:51.317Z,6.90
2018-07-13T01:23:19.078Z,7.20
2018-07-13T01:25:46.821Z,7.37
2018-07-13T01:28:14.439Z,7.37
2018-07-13T01:30:42.209Z,6.67
2018-07-13T01:33:09.872Z,6.00
2018-07-13T01:35:37.577Z,6.53
2018-07-13T01:38:05.274Z,7.57
2018-07-13T01:40:32.980Z,8.40
2018-07-13T01:43:00.733Z,7.13
2018-07-13T01:45:28.489Z,8.20
2018-07-13T01:47:56.302Z,6.90
2018-07-13T01:50:24.013Z,8.00
2018-07-13T01:52:51.702Z,7.60
2018-07-13T01:55:19.433Z,7.23
2018-07-13T01:57:47.097Z,6.87
2018-07-13T02:00:14.845Z,7.97
2018-07-13T02:02:42.542Z,8.47
2018-07-13T02:05:10.313Z,7.93
2018-07-13T02:07:38.039Z,7.83
2018-07-13T02:10:05.713Z,7.77
2018-07-13T02:12:33.397Z,7.57
2018-07-13T02:15:01.069Z,7.93
2018-07-13T02:17:28.785Z,8.40
2018-07-13T02:19:56.440Z,8.67
2018-07-13T02:22:24.129Z,6.93
2018-07-13T02:24:51.866Z,8.60
2018-07-13T02:27:19.559Z,7.80
2018-07-13T02:29:47.295Z,9.03
2018-07-13T02:32:15.015Z,8.80
2018-07-13T02:34:42.717Z,8.30
2018-07-13T02:37:10.739Z,8.33
2018-07-13T02:39:38.433Z,8.57
2018-07-13T02:42:06.168Z,9.10
2018-07-13T02:44:33.849Z,8.20
2018-07-13T02:47:01.490Z,8.33
2018-07-13T02:49:29.221Z,9.43
2018-07-13T02:51:56.924Z,8.60
2018-07-13T02:54:24.602Z,7.77
2018-07-13T02:56:52.366Z,8.03
2018-07-13T02:59:20.154Z,7.33
2018-07-13T03:01:47.854Z,8.20
2018-07-13T03:04:15.576Z,9.17
2018-07-13T03:06:43.278Z,8.00
2018-07-13T03:09:12.040Z,8.80
2018-07-13T03:11:39.955Z,8.47
2018-07-13T03:14:07.924Z,7.80
2018-07-13T03:16:36.031Z,7.40
2018-07-13T03:19:03.732Z,8.80
2018-07-13T03:21:31.472Z,8.73
2018-07-13T03:23:59.120Z,8.40
2018-07-13T03:26:26.878Z,9.07
2018-07-13T03:28:54.535Z,8.03
2018-07-13T03:31:22.251Z,8.03
2018-07-13T03:33:49.986Z,8.63
2018-07-13T03:36:17.717Z,7.70
2018-07-13T03:38:46.449Z,7.60
2018-07-13T03:41:14.112Z,8.03
2018-07-13T03:43:42.303Z,7.20
2018-07-13T03:46:10.114Z,6.90
2018-07-13T03:48:37.768Z,7.33
2018-07-13T03:51:05.764Z,8.13
2018-07-13T03:53:33.603Z,7.33
2018-07-13T03:56:01.814Z,8.40
2018-07-13T03:58:29.634Z,7.60
2018-07-13T04:00:57.337Z,6.90
2018-07-13T04:03:25.091Z,7.13
2018-07-13T04:05:53.842Z,7.50
2018-07-13T04:08:21.527Z,7.60
2018-07-13T04:10:49.221Z,7.47
2018-07-13T04:13:16.886Z,8.57
2018-07-13T04:15:44.578Z,7.93
2018-07-13T04:18:17.107Z,8.20
2018-07-13T04:20:44.879Z,8.47
2018-07-13T04:23:12.645Z,7.10
2018-07-13T04:25:40.471Z,8.57
2018-07-13T04:28:08.152Z,7.87
2018-07-13T04:30:35.939Z,7.80
2018-07-13T04:33:03.695Z,8.80
2018-07-13T04:35:31.468Z,8.90
2018-07-13T04:37:59.278Z,8.70
2018-07-13T04:40:26.959Z,9.37
2018-07-13T04:42:54.641Z,8.37
2018-07-13T04:45:22.495Z,7.77
2018-07-13T04:47:50.250Z,8.03
2018-07-13T04:50:18.160Z,9.20
2018-07-13T04:52:45.982Z,8.90
2018-07-13T04:55:13.722Z,9.20
2018-07-13T04:57:41.516Z,9.00
2018-07-13T05:00:09.297Z,8.60
2018-07-13T05:02:37.219Z,8.77
2018-07-13T05:05:05.602Z,7.83
2018-07-13T05:07:33.427Z,8.33
2018-07-13T05:10:01.174Z,9.20
2018-07-13T05:12:28.971Z,8.30
2018-07-13T05:14:56.706Z,8.40
2018-07-13T05:17:24.466Z,10.30
2018-07-13T05:19:52.249Z,9.23
2018-07-13T05:22:19.983Z,9.97
2018-07-13T05:24:47.739Z,8.97
2018-07-13T05:27:15.707Z,9.97
2018-07-13T05:29:43.524Z,9.10
2018-07-13T05:32:11.419Z,9.17
2018-07-13T05:34:39.193Z,10.00
2018-07-13T05:37:07.032Z,9.37
2018-07-13T05:39:34.817Z,9.03
2018-07-13T05:42:02.534Z,10.00
2018-07-13T05:44:30.300Z,9.53
2018-07-13T05:46:58.102Z,9.60
2018-07-13T05:49:26.118Z,10.13
2018-07-13T05:51:54.011Z,9.20
2018-07-13T05:54:21.807Z,10.80
2018-07-13T05:56:49.830Z,9.03
2018-07-13T05:59:17.646Z,8.70
2018-07-13T06:01:45.444Z,9.20
2018-07-13T06:04:13.169Z,9.63
2018-07-13T06:06:40.995Z,8.60
2018-07-13T06:09:10.589Z,8.83
2018-07-13T06:11:38.625Z,9.27
2018-07-13T06:14:06.507Z,8.70
2018-07-13T06:16:34.553Z,8.67
2018-07-13T06:19:02.293Z,9.57
2018-07-13T06:21:30.078Z,9.50
2018-07-13T06:23:57.825Z,9.77
2018-07-13T06:26:25.594Z,10.30
2018-07-13T06:28:53.336Z,9.77
2018-07-13T06:31:21.043Z,8.50
2018-07-13T06:33:50.737Z,9.10
2018-07-13T06:36:18.897Z,8.70
2018-07-13T06:38:47.685Z,8.80
2018-07-13T06:41:16.340Z,9.80
2018-07-13T06:43:45.442Z,9.93
2018-07-13T06:46:13.191Z,9.37
2018-07-13T06:48:41.040Z,9.77
2018-07-13T06:51:08.805Z,10.90
2018-07-13T06:53:36.709Z,9.23
2018-07-13T06:56:04.484Z,9.40
2018-07-13T06:58:49.761Z,9.63
2018-07-13T07:01:17.571Z,9.30
2018-07-13T07:04:23.886Z,8.80
2018-07-13T07:06:52.149Z,9.80
2018-07-13T07:09:20.334Z,10.20
2018-07-13T07:12:06.332Z,9.60
2018-07-13T07:14:34.163Z,9.33
2018-07-13T07:17:01.829Z,9.70
2018-07-13T07:19:29.617Z,9.10
2018-07-13T07:21:57.314Z,8.60
2018-07-13T07:24:25.202Z,9.70
2018-07-13T07:26:52.938Z,8.63
2018-07-13T07:29:20.595Z,8.90
2018-07-13T07:31:48.314Z,7.90
2018-07-13T07:34:16.008Z,8.93
2018-07-13T07:36:43.802Z,8.10
2018-07-13T07:39:12.019Z,8.27
2018-07-13T07:41:40.459Z,7.60
2018-07-13T07:44:08.185Z,8.90
2018-07-13T07:46:36.325Z,7.90
2018-07-13T07:49:04.086Z,8.37
2018-07-13T07:51:32.231Z,8.13
2018-07-13T07:54:00.055Z,8.17
2018-07-13T07:56:27.777Z,7.23
2018-07-13T07:58:55.559Z,7.47
2018-07-13T08:01:23.253Z,7.90
2018-07-13T08:03:50.907Z,8.90
2018-07-13T08:06:18.703Z,9.40
2018-07-13T08:08:46.312Z,7.80
2018-07-13T08:11:13.974Z,7.97
2018-07-13T08:13:41.845Z,7.80
2018-07-13T08:16:09.444Z,7.80
2018-07-13T08:18:37.118Z,8.70
2018-07-13T08:21:04.870Z,7.77
2018-07-13T08:23:32.735Z,8.27
2018-07-13T08:26:00.582Z,7.90
2018-07-13T08:28:28.427Z,7.30
2018-07-13T08:30:58.050Z,6.13
2018-07-13T08:33:25.744Z,7.70
2018-07-13T08:35:53.527Z,6.53
2018-07-13T08:38:21.205Z,7.20
2018-07-13T08:40:48.888Z,7.23
2018-07-13T08:43:16.543Z,6.97
2018-07-13T08:45:44.247Z,7.10
2018-07-13T08:48:11.952Z,6.00
2018-07-13T08:50:39.628Z,6.53
2018-07-13T08:53:07.315Z,5.27
2018-07-13T08:55:34.932Z,4.70
2018-07-13T08:58:02.646Z,6.10
2018-07-13T09:00:30.405Z,5.60
2018-07-13T09:02:58.209Z,5.33
2018-07-13T09:05:25.950Z,5.27
2018-07-13T09:07:53.666Z,6.37
2018-07-13T09:10:21.422Z,5.80
2018-07-13T09:12:49.233Z,6.87
2018-07-13T09:15:16.950Z,5.80
2018-07-13T09:17:44.635Z,5.90
2018-07-13T09:20:13.038Z,6.53
2018-07-13T09:22:40.760Z,6.97
2018-07-13T09:25:09.012Z,6.50
2018-07-13T09:27:36.877Z,6.47
2018-07-13T09:30:05.190Z,6.00
2018-07-13T09:32:32.818Z,6.00
2018-07-13T09:35:00.499Z,5.80
2018-07-13T09:37:28.152Z,5.70
2018-07-13T09:39:55.808Z,6.30
2018-07-13T09:42:23.563Z,7.10
2018-07-13T09:44:51.211Z,6.10
2018-07-13T09:47:18.885Z,4.60
2018-07-13T09:49:46.611Z,6.20
2018-07-13T09:52:14.365Z,6.23
2018-07-13T09:54:42.053Z,5.53
2018-07-13T09:57:09.896Z,5.80
2018-07-13T09:59:37.577Z,5.43
2018-07-13T10:02:05.620Z,4.40
2018-07-13T10:04:33.483Z,5.37
2018-07-13T10:07:01.357Z,4.67
2018-07-13T10:09:29.094Z,4.63
2018-07-13T10:11:56.778Z,5.17
2018-07-13T10:14:24.510Z,5.13
2018-07-13T10:16:52.241Z,6.07
2018-07-13T10:19:19.938Z,5.30
2018-07-13T10:21:48.261Z,4.47
2018-07-13T10:24:17.906Z,4.90
2018-07-13T10:26:45.619Z,4.20
2018-07-13T10:29:19.924Z,4.73
2018-07-13T10:31:47.930Z,4.67
2018-07-13T10:34:17.229Z,4.70
2018-07-13T10:36:50.569Z,4.13
2018-07-13T10:39:18.198Z,4.03
2018-07-13T10:41:45.862Z,3.67
2018-07-13T10:44:13.537Z,3.90
2018-07-13T10:46:41.269Z,4.00
2018-07-13T10:49:08.999Z,4.10
2018-07-13T10:51:36.742Z,4.60
2018-07-13T10:54:04.358Z,4.73
2018-07-13T10:56:32.014Z,3.87
2018-07-13T10:58:59.717Z,4.00
2018-07-13T11:01:27.429Z,4.70
2018-07-13T11:03:55.079Z,4.17
2018-07-13T11:06:22.713Z,4.30
2018-07-13T11:08:50.412Z,3.57
2018-07-13T11:11:18.142Z,3.50
2018-07-13T11:13:45.810Z,4.37
2018-07-13T11:16:13.508Z,3.50
2018-07-13T11:18:41.203Z,3.43
2018-07-13T11:21:08.951Z,3.90
2018-07-13T11:23:36.670Z,3.10
2018-07-13T11:26:04.436Z,3.90
2018-07-13T11:28:32.162Z,3.60
2018-07-13T11:30:59.912Z,3.57
2018-07-13T11:33:27.596Z,3.07
2018-07-13T11:35:55.332Z,4.00
2018-07-13T11:38:23.018Z,3.43
2018-07-13T11:40:50.720Z,3.80
2018-07-13T11:43:18.402Z,3.87
2018-07-13T11:45:46.141Z,3.57
2018-07-13T11:48:13.926Z,3.17
2018-07-13T11:50:41.560Z,3.67
2018-07-13T11:53:09.187Z,3.10
2018-07-13T11:55:36.860Z,3.10
2018-07-13T11:58:04.598Z,3.40
2018-07-13T12:00:32.493Z,2.40
2018-07-13T12:03:00.253Z,3.40
2018-07-13T12:05:27.988Z,3.20
2018-07-13T12:07:55.725Z,2.87
2018-07-13T12:10:23.613Z,1.70
2018-07-13T12:12:51.292Z,2.50
2018-07-13T12:15:19.036Z,2.23
2018-07-13T12:17:46.949Z,1.97
2018-07-13T12:20:14.512Z,2.20
2018-07-13T12:22:42.267Z,2.17
2018-07-13T12:25:09.970Z,2.40
2018-07-13T12:27:38.227Z,1.87
2018-07-13T12:30:06.008Z,2.10
2018-07-13T12:32:33.845Z,1.97
2018-07-13T12:35:01.445Z,2.00
2018-07-13T12:37:29.033Z,2.00
2018-07-13T12:39:56.810Z,1.73
2018-07-13T12:42:24.342Z,1.87
2018-07-13T12:44:52.045Z,1.80
2018-07-13T12:47:19.715Z,1.53
2018-07-13T12:49:47.458Z,1.40
2018-07-13T12:52:15.148Z,2.50
2018-07-13T12:54:42.973Z,1.60
2018-07-13T12:57:10.717Z,1.53
2018-07-13T12:59:38.367Z,2.20
2018-07-13T13:02:06.144Z,2.23
2018-07-13T13:04:33.870Z,2.03
2018-07-13T13:07:01.483Z,1.93
2018-07-13T13:09:29.140Z,1.33
2018-07-13T13:11:56.796Z,1.60
2018-07-13T13:14:24.452Z,1.73
2018-07-13T13:16:52.098Z,1.80
2018-07-13T13:19:19.760Z,1.90
2018-07-13T13:21:47.602Z,1.90
2018-07-13T13:24:15.194Z,2.00
2018-07-13T13:26:42.944Z,2.17
2018-07-13T13:29:10.687Z,2.47
2018-07-13T13:31:38.317Z,2.70
2018-07-13T13:34:06.435Z,3.03
2018-07-13T13:36:34.135Z,2.90
2018-07-13T13:39:01.856Z,3.50
2018-07-13T13:41:29.520Z,2.90
2018-07-13T13:43:57.219Z,2.40
2018-07-13T13:46:25.670Z,2.47
2018-07-13T13:48:53.379Z,2.93
2018-07-13T13:51:21.116Z,3.30
2018-07-13T13:53:48.900Z,2.50
2018-07-13T13:56:16.657Z,3.37
2018-07-13T13:58:44.323Z,3.47
2018-07-13T14:01:12.087Z,2.93
2018-07-13T14:03:39.877Z,3.07
2018-07-13T14:06:07.533Z,3.70
2018-07-13T14:08:35.137Z,3.20
2018-07-13T14:11:02.820Z,2.60
2018-07-13T14:13:30.521Z,3.30
2018-07-13T14:15:58.243Z,2.90
2018-07-13T14:18:25.952Z,3.10
2018-07-13T14:20:53.592Z,3.10
2018-07-13T14:23:21.386Z,3.27
2018-07-13T14:25:49.054Z,2.67
2018-07-13T14:28:16.747Z,3.10
2018-07-13T14:30:44.304Z,3.20
2018-07-13T14:33:12.006Z,4.17
2018-07-13T14:35:39.771Z,2.93
2018-07-13T14:38:07.961Z,3.10
2018-07-13T14:40:36.133Z,3.23
2018-07-13T14:43:03.907Z,2.80
2018-07-13T14:45:31.547Z,2.83
2018-07-13T14:47:59.254Z,3.23
2018-07-13T14:50:26.900Z,4.40
2018-07-13T14:52:54.605Z,4.60
2018-07-13T14:55:22.207Z,3.50
2018-07-13T14:57:49.830Z,3.50
2018-07-13T15:00:17.521Z,3.13
2018-07-13T15:02:45.157Z,3.97
2018-07-13T15:05:12.820Z,3.70
2018-07-13T15:07:40.461Z,4.40
2018-07-13T15:10:08.133Z,4.40
2018-07-13T15:12:35.817Z,4.70
2018-07-13T15:15:03.780Z,4.00
2018-07-13T15:17:31.609Z,3.10
2018-07-13T15:19:59.202Z,4.20
2018-07-13T15:22:27.686Z,4.07
2018-07-13T15:24:55.394Z,3.93
2018-07-13T15:27:23.615Z,3.83
2018-07-13T15:29:51.295Z,3.20
2018-07-13T15:32:19.904Z,3.37
2018-07-13T15:34:47.542Z,3.13
2018-07-13T15:37:15.485Z,3.57
2018-07-13T15:39:43.126Z,3.37
2018-07-13T15:42:10.876Z,3.90
2018-07-13T15:44:38.526Z,4.20
2018-07-13T15:47:06.325Z,4.40
2018-07-13T15:49:34.008Z,3.53
2018-07-13T15:52:02.288Z,4.10
2018-07-13T15:54:29.981Z,4.30
2018-07-13T15:56:57.645Z,4.03
2018-07-13T15:59:25.291Z,3.97
2018-07-13T16:01:52.952Z,3.90
2018-07-13T16:04:20.669Z,3.67
2018-07-13T16:06:48.484Z,3.23
2018-07-13T16:09:16.150Z,3.93
2018-07-13T16:11:43.886Z,3.10
2018-07-13T16:14:11.536Z,3.70
2018-07-13T16:16:39.251Z,3.70
2018-07-13T16:19:06.966Z,3.90
2018-07-13T16:21:35.332Z,4.00
2018-07-13T16:24:02.982Z,3.37
2018-07-13T16:26:30.642Z,3.40
2018-07-13T16:28:58.436Z,3.93
2018-07-13T16:31:26.023Z,3.10
2018-07-13T16:33:53.746Z,3.67
2018-07-13T16:36:21.486Z,3.03
2018-07-13T16:38:49.276Z,3.13
2018-07-13T16:41:16.938Z,3.53
2018-07-13T16:43:44.661Z,3.50
2018-07-13T16:46:12.288Z,3.60
2018-07-13T16:48:39.932Z,3.70
2018-07-13T16:51:07.604Z,2.90
2018-07-13T16:53:35.318Z,3.10
2018-07-13T16:56:02.906Z,3.10
2018-07-13T16:58:30.658Z,3.73
2018-07-13T17:00:58.394Z,3.60
2018-07-13T17:03:26.021Z,3.60
2018-07-13T17:05:53.644Z,3.30
2018-07-13T17:08:21.309Z,3.70
2018-07-13T17:10:48.940Z,3.17
2018-07-13T17:13:16.581Z,3.13
2018-07-13T17:15:44.165Z,3.20
2018-07-13T17:18:12.018Z,3.43
2018-07-13T17:20:39.697Z,3.40
2018-07-13T17:23:07.284Z,3.50
2018-07-13T17:25:34.925Z,3.83
2018-07-13T17:28:02.702Z,3.47
2018-07-13T17:30:30.371Z,3.83
2018-07-13T17:32:57.939Z,3.43
2018-07-13T17:35:25.563Z,3.90
2018-07-13T17:37:54.073Z,3.47
2018-07-13T17:40:21.829Z,3.57
2018-07-13T17:42:49.530Z,4.10
2018-07-13T17:45:17.456Z,4.00
2018-07-13T17:47:45.063Z,4.23
2018-07-13T17:50:12.938Z,4.13
2018-07-13T17:52:40.685Z,4.20
2018-07-13T17:55:08.329Z,4.07
2018-07-13T17:57:36.008Z,3.47
2018-07-13T18:00:04.464Z,4.47
2018-07-13T18:02:32.272Z,3.87
2018-07-13T18:05:00.394Z,4.47
2018-07-13T18:07:28.092Z,3.97
2018-07-13T18:09:55.860Z,4.47
2018-07-13T18:12:23.547Z,3.70
2018-07-13T18:14:51.282Z,4.17
2018-07-13T18:17:19.001Z,3.70
2018-07-13T18:19:46.719Z,4.30
2018-07-13T18:22:14.447Z,3.90
2018-07-13T18:24:42.202Z,3.53
2018-07-13T18:27:09.949Z,4.20
2018-07-13T18:29:37.765Z,3.70
2018-07-13T18:32:05.641Z,3.77
2018-07-13T18:34:33.446Z,4.17
2018-07-13T18:37:01.160Z,3.70
2018-07-13T18:39:28.819Z,4.47
2018-07-13T18:41:56.703Z,3.87
2018-07-13T18:44:24.484Z,4.67
2018-07-13T18:46:52.120Z,4.00
2018-07-13T18:49:19.783Z,4.07
2018-07-13T18:51:47.573Z,4.00
2018-07-13T18:54:15.251Z,3.80
2018-07-13T18:56:43.004Z,4.70
2018-07-13T18:59:10.796Z,4.97
2018-07-13T19:01:38.497Z,4.80
2018-07-13T19:04:06.261Z,3.80
2018-07-13T19:06:33.969Z,5.40
2018-07-13T19:09:01.733Z,5.43
2018-07-13T19:11:29.385Z,4.83
2018-07-13T19:13:57.088Z,5.40
2018-07-13T19:16:24.867Z,4.90
2018-07-13T19:18:53.034Z,6.20
2018-07-13T19:21:20.682Z,5.10
2018-07-13T19:23:48.329Z,4.33
2018-07-13T19:26:16.517Z,5.20
2018-07-13T19:28:44.207Z,5.90
2018-07-13T19:31:12.044Z,4.93
2018-07-13T19:33:39.861Z,5.03
2018-07-13T19:36:07.869Z,5.37
2018-07-13T19:38:35.479Z,5.27
2018-07-13T19:41:03.465Z,5.60
2018-07-13T19:43:31.131Z,4.90
2018-07-13T19:45:58.810Z,5.13
2018-07-13T19:48:26.595Z,5.27
2018-07-13T19:50:54.394Z,8.03
2018-07-13T19:53:22.249Z,5.77
2018-07-13T19:55:50.080Z,7.33
2018-07-13T19:58:17.861Z,7.13
2018-07-13T20:00:45.860Z,8.60
2018-07-13T20:03:13.617Z,7.73
2018-07-13T20:05:41.452Z,6.10
2018-07-13T20:08:09.145Z,6.17
2018-07-13T20:10:36.873Z,6.33
2018-07-13T20:13:04.776Z,7.00
2018-07-13T20:15:32.624Z,7.23
2018-07-13T20:18:00.486Z,7.20
2018-07-13T20:20:28.332Z,9.40
2018-07-13T20:22:56.139Z,8.73
2018-07-13T20:25:23.961Z,7.20
2018-07-13T20:27:51.749Z,6.67
2018-07-13T20:30:19.564Z,7.30
2018-07-13T20:32:47.365Z,7.00
2018-07-13T20:35:15.063Z,6.33
2018-07-13T20:37:42.787Z,6.80
2018-07-13T20:40:10.482Z,5.83
2018-07-13T20:42:38.748Z,8.60
2018-07-13T20:45:06.388Z,7.30
2018-07-13T20:47:34.105Z,6.43
2018-07-13T20:50:01.873Z,5.90
2018-07-13T20:52:29.694Z,6.23
2018-07-13T20:54:57.490Z,6.00
2018-07-13T20:57:25.284Z,6.00
2018-07-13T20:59:53.070Z,6.33
2018-07-13T21:02:20.893Z,5.60
2018-07-13T21:04:48.650Z,7.43
2018-07-13T21:07:16.390Z,6.63
2018-07-13T21:09:44.153Z,7.30
2018-07-13T21:12:12.532Z,6.23
2018-07-13T21:14:40.203Z,6.50
2018-07-13T21:17:07.914Z,5.87
2018-07-13T21:19:35.748Z,7.30
2018-07-13T21:22:04.010Z,5.40
2018-07-13T21:24:31.813Z,6.33
2018-07-13T21:26:59.792Z,6.30
2018-07-13T21:29:27.494Z,5.33
2018-07-13T21:31:55.275Z,6.10
2018-07-13T21:34:23.133Z,6.57
2018-07-13T21:36:50.791Z,6.20
2018-07-13T21:39:18.696Z,6.23
2018-07-13T21:41:46.427Z,5.93
2018-07-13T21:44:14.401Z,9.07
2018-07-13T21:46:42.165Z,7.03
2018-07-13T21:49:09.835Z,7.03
2018-07-13T21:51:37.467Z,7.43
2018-07-13T21:54:05.144Z,8.87
2018-07-13T21:56:33.802Z,7.67
2018-07-13T21:59:01.569Z,7.10
2018-07-13T22:01:29.357Z,7.17
2018-07-13T22:03:57.281Z,6.77
2018-07-13T22:06:24.996Z,7.93
2018-07-13T22:08:52.843Z,6.03
2018-07-13T22:11:21.141Z,5.97
2018-07-13T22:13:49.195Z,7.30
2018-07-13T22:16:17.036Z,6.40
2018-07-13T22:18:45.081Z,7.13
2018-07-13T22:21:12.737Z,5.90
2018-07-13T22:23:40.458Z,7.10
2018-07-13T22:26:08.129Z,6.47
2018-07-13T22:28:35.934Z,6.07
2018-07-13T22:31:03.727Z,6.33
2018-07-13T22:33:31.528Z,7.20
2018-07-13T22:35:59.342Z,7.20
2018-07-13T22:38:27.394Z,8.93
2018-07-13T22:40:55.082Z,8.03
2018-07-13T22:43:22.738Z,8.63
2018-07-13T22:45:50.535Z,8.43
2018-07-13T22:48:18.358Z,7.97
2018-07-13T22:50:46.022Z,7.07
2018-07-13T22:53:13.778Z,8.23
2018-07-13T22:55:41.659Z,7.53
2018-07-13T22:58:09.557Z,8.07
2018-07-13T23:00:37.398Z,8.00
2018-07-13T23:03:05.232Z,7.80
2018-07-13T23:05:32.939Z,7.83
2018-07-13T23:08:00.685Z,8.30
2018-07-13T23:10:28.395Z,7.40
2018-07-13T23:12:56.141Z,8.33
2018-07-13T23:15:23.875Z,9.00
2018-07-13T23:17:51.659Z,7.30
2018-07-13T23:20:19.397Z,9.20
2018-07-13T23:22:47.206Z,7.77
2018-07-13T23:25:14.983Z,7.47
2018-07-13T23:27:42.791Z,7.93
2018-07-13T23:30:10.493Z,6.87
2018-07-13T23:32:38.145Z,7.40
2018-07-13T23:35:05.791Z,8.20
2018-07-13T23:37:33.582Z,7.73
2018-07-13T23:40:01.339Z,8.63
2018-07-13T23:45:03.691Z,8.67
2018-07-13T23:47:31.468Z,9.40
2018-07-13T23:49:59.137Z,8.60
2018-07-13T23:52:27.161Z,8.33
2018-07-13T23:54:56.140Z,8.60
2018-07-13T23:57:23.877Z,9.33
2018-07-13T23:59:51.704Z,9.53
